sensor_id;sensor_type;location;lat;lon;timestamp;pressure;altitude;pressure_sealevel;temperature;humidity
48624;BME280;34422;45.802;16.114;2023-02-14T00:01:18;102281.03;;;0.13;100.00
48624;BME280;34422;45.802;16.114;2023-02-14T00:03:46;102282.25;;;0.08;100.00
48624;BME280;34422;45.802;16.114;2023-02-14T00:06:13;102281.88;;;-0.01;100.00
48624;BME280;34422;45.802;16.114;2023-02-14T00:08:40;102275.69;;;-0.01;100.00
48624;BME280;34422;45.802;16.114;2023-02-14T00:11:11;102273.59;;;0.04;100.00
48624;BME280;34422;45.802;16.114;2023-02-14T00:13:38;102273.50;;;0.06;100.00
48624;BME280;34422;45.802;16.114;2023-02-14T00:16:05;102268.44;;;0.01;100.00
48624;BME280;34422;45.802;16.114;2023-02-14T00:18:32;102275.69;;;-0.01;100.00
48624;BME280;34422;45.802;16.114;2023-02-14T00:21:17;102283.97;;;-0.06;100.00
48624;BME280;34422;45.802;16.114;2023-02-14T00:23:44;102281.22;;;-0.04;100.00
48624;BME280;34422;45.802;16.114;2023-02-14T00:26:14;102278.72;;;-0.07;100.00
48624;BME280;34422;45.802;16.114;2023-02-14T00:28:41;102275.31;;;0.05;100.00
48624;BME280;34422;45.802;16.114;2023-02-14T00:31:08;102287.84;;;0.03;100.00
48624;BME280;34422;45.802;16.114;2023-02-14T00:33:35;102287.09;;;0.01;100.00
48624;BME280;34422;45.802;16.114;2023-02-14T00:36:04;102273.91;;;-0.01;100.00
48624;BME280;34422;45.802;16.114;2023-02-14T00:38:32;102286.34;;;-0.01;100.00
48624;BME280;34422;45.802;16.114;2023-02-14T00:40:59;102292.03;;;-0.07;100.00
48624;BME280;34422;45.802;16.114;2023-02-14T00:43:26;102302.88;;;-0.10;100.00
48624;BME280;34422;45.802;16.114;2023-02-14T00:45:52;102304.75;;;-0.12;100.00
48624;BME280;34422;45.802;16.114;2023-02-14T00:48:19;102292.63;;;-0.16;100.00
48624;BME280;34422;45.802;16.114;2023-02-14T00:50:46;102292.22;;;-0.24;100.00
48624;BME280;34422;45.802;16.114;2023-02-14T00:53:13;102302.81;;;-0.39;100.00
48624;BME280;34422;45.802;16.114;2023-02-14T00:55:40;102305.78;;;-0.43;100.00
48624;BME280;34422;45.802;16.114;2023-02-14T00:58:07;102312.91;;;-0.44;100.00
48624;BME280;34422;45.802;16.114;2023-02-14T01:00:33;102310.41;;;-0.47;100.00
48624;BME280;34422;45.802;16.114;2023-02-14T01:03:00;102315.06;;;-0.50;100.00
48624;BME280;34422;45.802;16.114;2023-02-14T01:05:27;102321.63;;;-0.56;100.00
48624;BME280;34422;45.802;16.114;2023-02-14T01:07:54;102321.78;;;-0.59;100.00
48624;BME280;34422;45.802;16.114;2023-02-14T01:10:21;102318.38;;;-0.61;100.00
48624;BME280;34422;45.802;16.114;2023-02-14T01:12:47;102313.03;;;-0.61;100.00
48624;BME280;34422;45.802;16.114;2023-02-14T01:15:14;102320.06;;;-0.60;100.00
48624;BME280;34422;45.802;16.114;2023-02-14T01:17:41;102317.50;;;-0.61;100.00
48624;BME280;34422;45.802;16.114;2023-02-14T01:20:09;102310.38;;;-0.61;100.00
48624;BME280;34422;45.802;16.114;2023-02-14T01:22:36;102318.00;;;-0.55;100.00
48624;BME280;34422;45.802;16.114;2023-02-14T01:25:03;102314.94;;;-0.63;100.00
48624;BME280;34422;45.802;16.114;2023-02-14T01:27:30;102311.50;;;-0.65;100.00
48624;BME280;34422;45.802;16.114;2023-02-14T01:29:57;102308.06;;;-0.67;100.00
48624;BME280;34422;45.802;16.114;2023-02-14T01:32:24;102304.69;;;-0.69;100.00
48624;BME280;34422;45.802;16.114;2023-02-14T01:34:50;102301.81;;;-0.66;100.00
48624;BME280;34422;45.802;16.114;2023-02-14T01:37:17;102315.03;;;-0.64;100.00
48624;BME280;34422;45.802;16.114;2023-02-14T01:39:44;102304.69;;;-0.69;100.00
48624;BME280;34422;45.802;16.114;2023-02-14T01:42:11;102305.88;;;-0.75;100.00
48624;BME280;34422;45.802;16.114;2023-02-14T01:47:07;102298.00;;;-0.76;100.00
48624;BME280;34422;45.802;16.114;2023-02-14T01:49:43;102299.53;;;-0.72;100.00
48624;BME280;34422;45.802;16.114;2023-02-14T01:52:14;102300.31;;;-0.70;100.00
48624;BME280;34422;45.802;16.114;2023-02-14T01:54:49;102289.75;;;-0.72;100.00
48624;BME280;34422;45.802;16.114;2023-02-14T01:57:20;102296.09;;;-0.74;100.00
48624;BME280;34422;45.802;16.114;2023-02-14T01:59:53;102297.31;;;-0.80;100.00
48624;BME280;34422;45.802;16.114;2023-02-14T02:02:21;102292.28;;;-0.84;100.00
48624;BME280;34422;45.802;16.114;2023-02-14T02:04:53;102286.53;;;-0.92;100.00
48624;BME280;34422;45.802;16.114;2023-02-14T02:07:23;102297.34;;;-0.95;100.00
48624;BME280;34422;45.802;16.114;2023-02-14T02:09:55;102293.09;;;-0.98;100.00
48624;BME280;34422;45.802;16.114;2023-02-14T02:12:23;102294.97;;;-1.00;100.00
48624;BME280;34422;45.802;16.114;2023-02-14T02:14:53;102297.03;;;-1.05;100.00
48624;BME280;34422;45.802;16.114;2023-02-14T02:31:46;102281.94;;;-1.04;100.00
48624;BME280;34422;45.802;16.114;2023-02-14T02:34:57;102288.81;;;-1.00;100.00
48624;BME280;34422;45.802;16.114;2023-02-14T02:40:32;102284.50;;;-1.03;100.00
48624;BME280;34422;45.802;16.114;2023-02-14T02:46:21;102275.28;;;-1.12;100.00
48624;BME280;34422;45.802;16.114;2023-02-14T02:52:47;102262.81;;;-1.25;100.00
48624;BME280;34422;45.802;16.114;2023-02-14T02:56:04;102274.44;;;-1.28;100.00
48624;BME280;34422;45.802;16.114;2023-02-14T02:58:55;102268.38;;;-1.30;100.00
48624;BME280;34422;45.802;16.114;2023-02-14T03:01:27;102271.03;;;-1.30;100.00
48624;BME280;34422;45.802;16.114;2023-02-14T03:04:00;102267.59;;;-1.32;100.00
48624;BME280;34422;45.802;16.114;2023-02-14T03:06:47;102269.31;;;-1.31;100.00
48624;BME280;34422;45.802;16.114;2023-02-14T03:12:19;102264.00;;;-1.31;100.00
48624;BME280;34422;45.802;16.114;2023-02-14T03:17:58;102261.78;;;-1.38;100.00
48624;BME280;34422;45.802;16.114;2023-02-14T03:28:37;102265.03;;;-1.49;100.00
48624;BME280;34422;45.802;16.114;2023-02-14T03:36:32;102264.28;;;-1.51;100.00
48624;BME280;34422;45.802;16.114;2023-02-14T03:39:17;102260.00;;;-1.54;100.00
48624;BME280;34422;45.802;16.114;2023-02-14T03:42:00;102269.75;;;-1.54;100.00
48624;BME280;34422;45.802;16.114;2023-02-14T03:44:32;102267.97;;;-1.54;100.00
48624;BME280;34422;45.802;16.114;2023-02-14T03:47:12;102274.38;;;-1.58;100.00
48624;BME280;34422;45.802;16.114;2023-02-14T03:49:44;102277.03;;;-1.58;100.00
48624;BME280;34422;45.802;16.114;2023-02-14T03:52:13;102273.69;;;-1.61;100.00
48624;BME280;34422;45.802;16.114;2023-02-14T03:54:42;102262.28;;;-1.63;100.00
48624;BME280;34422;45.802;16.114;2023-02-14T03:57:32;102270.59;;;-1.69;100.00
48624;BME280;34422;45.802;16.114;2023-02-14T04:00:03;102266.56;;;-1.76;100.00
48624;BME280;34422;45.802;16.114;2023-02-14T04:02:34;102264.19;;;-1.81;100.00
48624;BME280;34422;45.802;16.114;2023-02-14T04:05:08;102273.78;;;-1.78;100.00
48624;BME280;34422;45.802;16.114;2023-02-14T04:07:50;102271.22;;;-1.80;100.00
48624;BME280;34422;45.802;16.114;2023-02-14T04:10:18;102263.16;;;-1.78;100.00
48624;BME280;34422;45.802;16.114;2023-02-14T04:12:46;102263.66;;;-1.88;100.00
48624;BME280;34422;45.802;16.114;2023-02-14T04:15:14;102265.34;;;-1.87;100.00
48624;BME280;34422;45.802;16.114;2023-02-14T04:17:41;102263.50;;;-1.85;100.00
48624;BME280;34422;45.802;16.114;2023-02-14T04:20:27;102256.63;;;-1.89;100.00
48624;BME280;34422;45.802;16.114;2023-02-14T04:22:55;102255.84;;;-1.91;100.00
48624;BME280;34422;45.802;16.114;2023-02-14T04:25:22;102258.69;;;-1.94;100.00
48624;BME280;34422;45.802;16.114;2023-02-14T04:27:49;102250.97;;;-1.98;100.00
48624;BME280;34422;45.802;16.114;2023-02-14T04:30:16;102249.09;;;-1.96;100.00
48624;BME280;34422;45.802;16.114;2023-02-14T04:32:43;102246.53;;;-1.98;100.00
48624;BME280;34422;45.802;16.114;2023-02-14T04:35:10;102245.81;;;-2.01;100.00
48624;BME280;34422;45.802;16.114;2023-02-14T04:37:37;102236.06;;;-2.01;100.00
48624;BME280;34422;45.802;16.114;2023-02-14T04:40:04;102230.94;;;-2.04;100.00
48624;BME280;34422;45.802;16.114;2023-02-14T04:42:31;102232.84;;;-2.06;100.00
48624;BME280;34422;45.802;16.114;2023-02-14T04:44:58;102232.06;;;-2.08;100.00
48624;BME280;34422;45.802;16.114;2023-02-14T04:47:25;102227.53;;;-2.06;100.00
48624;BME280;34422;45.802;16.114;2023-02-14T04:49:52;102236.84;;;-1.99;100.00
48624;BME280;34422;45.802;16.114;2023-02-14T04:52:19;102236.06;;;-2.01;100.00
48624;BME280;34422;45.802;16.114;2023-02-14T04:54:46;102226.31;;;-2.00;100.00
48624;BME280;34422;45.802;16.114;2023-02-14T04:57:14;102228.47;;;-2.07;100.00
48624;BME280;34422;45.802;16.114;2023-02-14T04:59:41;102223.84;;;-2.19;100.00
48624;BME280;34422;45.802;16.114;2023-02-14T05:02:08;102218.69;;;-2.22;100.00
48624;BME280;34422;45.802;16.114;2023-02-14T05:04:35;102215.50;;;-2.29;100.00
48624;BME280;34422;45.802;16.114;2023-02-14T05:07:01;102214.13;;;-2.36;100.00
48624;BME280;34422;45.802;16.114;2023-02-14T05:09:28;102210.00;;;-2.41;100.00
48624;BME280;34422;45.802;16.114;2023-02-14T05:11:55;102217.88;;;-2.40;100.00
48624;BME280;34422;45.802;16.114;2023-02-14T05:14:22;102217.88;;;-2.40;100.00
48624;BME280;34422;45.802;16.114;2023-02-14T05:16:49;102215.31;;;-2.41;100.00
48624;BME280;34422;45.802;16.114;2023-02-14T05:19:15;102214.78;;;-2.48;100.00
48624;BME280;34422;45.802;16.114;2023-02-14T05:21:42;102215.78;;;-2.51;100.00
48624;BME280;34422;45.802;16.114;2023-02-14T05:24:09;102217.03;;;-2.58;100.00
48624;BME280;34422;45.802;16.114;2023-02-14T05:26:36;102216.53;;;-2.64;100.00
48624;BME280;34422;45.802;16.114;2023-02-14T05:29:02;102224.31;;;-2.61;100.00
48624;BME280;34422;45.802;16.114;2023-02-14T05:31:29;102218.53;;;-2.69;100.00
48624;BME280;34422;45.802;16.114;2023-02-14T05:33:56;102217.47;;;-2.65;100.00
48624;BME280;34422;45.802;16.114;2023-02-14T05:36:23;102222.41;;;-2.59;100.00
48624;BME280;34422;45.802;16.114;2023-02-14T05:38:50;102219.69;;;-2.58;100.00
48624;BME280;34422;45.802;16.114;2023-02-14T05:41:16;102226.56;;;-2.54;100.00
48624;BME280;34422;45.802;16.114;2023-02-14T05:43:43;102229.13;;;-2.52;100.00
48624;BME280;34422;45.802;16.114;2023-02-14T05:46:10;102230.22;;;-2.56;100.00
48624;BME280;34422;45.802;16.114;2023-02-14T05:48:37;102231.84;;;-2.54;100.00
48624;BME280;34422;45.802;16.114;2023-02-14T05:51:05;102230.84;;;-2.51;100.00
48624;BME280;34422;45.802;16.114;2023-02-14T05:53:33;102230.91;;;-2.53;100.00
48624;BME280;34422;45.802;16.114;2023-02-14T05:56:00;102228.28;;;-2.53;100.00
48624;BME280;34422;45.802;16.114;2023-02-14T05:58:27;102242.31;;;-2.51;100.00
48624;BME280;34422;45.802;16.114;2023-02-14T06:00:55;102238.56;;;-2.46;100.00
48624;BME280;34422;45.802;16.114;2023-02-14T06:03:22;102241.81;;;-2.41;100.00
48624;BME280;34422;45.802;16.114;2023-02-14T06:05:49;102237.38;;;-2.41;100.00
48624;BME280;34422;45.802;16.114;2023-02-14T06:08:16;102246.03;;;-2.37;100.00
48624;BME280;34422;45.802;16.114;2023-02-14T06:10:43;102240.28;;;-2.30;100.00
48624;BME280;34422;45.802;16.114;2023-02-14T06:13:10;102239.81;;;-2.21;100.00
48624;BME280;34422;45.802;16.114;2023-02-14T06:15:37;102244.84;;;-2.16;100.00
48624;BME280;34422;45.802;16.114;2023-02-14T06:18:04;102242.75;;;-2.09;100.00
48624;BME280;34422;45.802;16.114;2023-02-14T06:20:32;102247.03;;;-2.07;100.00
48624;BME280;34422;45.802;16.114;2023-02-14T06:22:58;102236.75;;;-2.13;100.00
48624;BME280;34422;45.802;16.114;2023-02-14T06:25:25;102242.75;;;-2.09;100.00
48624;BME280;34422;45.802;16.114;2023-02-14T06:27:56;102237.38;;;-2.08;100.00
48624;BME280;34422;45.802;16.114;2023-02-14T06:30:23;102238.72;;;-2.01;100.00
48624;BME280;34422;45.802;16.114;2023-02-14T06:32:51;102239.59;;;-2.00;100.00
48624;BME280;34422;45.802;16.114;2023-02-14T06:35:18;102243.72;;;-1.95;100.00
48624;BME280;34422;45.802;16.114;2023-02-14T06:37:45;102239.00;;;-1.90;100.00
48624;BME280;34422;45.802;16.114;2023-02-14T06:40:12;102240.69;;;-1.89;100.00
48624;BME280;34422;45.802;16.114;2023-02-14T06:42:39;102247.88;;;-1.91;100.00
48624;BME280;34422;45.802;16.114;2023-02-14T06:45:07;102240.28;;;-1.97;100.00
48624;BME280;34422;45.802;16.114;2023-02-14T06:47:34;102242.00;;;-1.96;100.00
48624;BME280;34422;45.802;16.114;2023-02-14T06:50:01;102246.09;;;-1.90;100.00
48624;BME280;34422;45.802;16.114;2023-02-14T06:52:32;102248.94;;;-1.77;100.00
48624;BME280;34422;45.802;16.114;2023-02-14T06:54:59;102244.59;;;-1.78;100.00
48624;BME280;34422;45.802;16.114;2023-02-14T06:57:25;102239.09;;;-1.75;100.00
48624;BME280;34422;45.802;16.114;2023-02-14T06:59:52;102240.13;;;-1.62;100.00
48624;BME280;34422;45.802;16.114;2023-02-14T07:02:19;102251.00;;;-1.51;100.00
48624;BME280;34422;45.802;16.114;2023-02-14T07:04:46;102230.94;;;-1.41;100.00
48624;BME280;34422;45.802;16.114;2023-02-14T07:07:13;102242.91;;;-1.34;100.00
48624;BME280;34422;45.802;16.114;2023-02-14T07:09:39;102239.75;;;-1.25;100.00
48624;BME280;34422;45.802;16.114;2023-02-14T07:12:06;102238.88;;;-1.10;100.00
48624;BME280;34422;45.802;16.114;2023-02-14T07:14:33;102237.59;;;-0.88;100.00
48624;BME280;34422;45.802;16.114;2023-02-14T07:17:00;102243.69;;;-0.86;100.00
48624;BME280;34422;45.802;16.114;2023-02-14T07:19:27;102243.69;;;-0.86;100.00
48624;BME280;34422;45.802;16.114;2023-02-14T07:21:53;102243.91;;;-0.61;100.00
48624;BME280;34422;45.802;16.114;2023-02-14T07:24:20;102244.13;;;-0.50;100.00
48624;BME280;34422;45.802;16.114;2023-02-14T07:26:47;102246.69;;;-0.34;100.00
48624;BME280;34422;45.802;16.114;2023-02-14T07:29:14;102245.09;;;-0.22;100.00
48624;BME280;34422;45.802;16.114;2023-02-14T07:31:41;102248.47;;;0.37;100.00
48624;BME280;34422;45.802;16.114;2023-02-14T07:34:07;102250.25;;;1.17;100.00
48624;BME280;34422;45.802;16.114;2023-02-14T07:36:36;102236.84;;;1.43;100.00
48624;BME280;34422;45.802;16.114;2023-02-14T07:39:04;102241.50;;;2.16;100.00
48624;BME280;34422;45.802;16.114;2023-02-14T07:41:31;102246.69;;;2.30;100.00
48624;BME280;34422;45.802;16.114;2023-02-14T07:43:58;102244.94;;;1.80;100.00
48624;BME280;34422;45.802;16.114;2023-02-14T07:46:24;102236.94;;;1.42;100.00
48624;BME280;34422;45.802;16.114;2023-02-14T07:48:51;102236.84;;;1.69;100.00
48624;BME280;34422;45.802;16.114;2023-02-14T07:51:18;102236.31;;;1.76;100.00
48624;BME280;34422;45.802;16.114;2023-02-14T07:53:45;102235.75;;;1.97;100.00
48624;BME280;34422;45.802;16.114;2023-02-14T07:56:12;102237.78;;;1.93;100.00
48624;BME280;34422;45.802;16.114;2023-02-14T07:58:38;102237.25;;;2.01;100.00
48624;BME280;34422;45.802;16.114;2023-02-14T08:01:05;102233.13;;;2.81;100.00
48624;BME280;34422;45.802;16.114;2023-02-14T08:03:32;102231.84;;;3.21;100.00
48624;BME280;34422;45.802;16.114;2023-02-14T08:05:59;102235.34;;;3.68;100.00
48624;BME280;34422;45.802;16.114;2023-02-14T08:08:27;102229.72;;;4.81;100.00
48624;BME280;34422;45.802;16.114;2023-02-14T08:10:54;102238.91;;;4.99;100.00
48624;BME280;34422;45.802;16.114;2023-02-14T08:13:21;102242.41;;;5.94;100.00
48624;BME280;34422;45.802;16.114;2023-02-14T08:15:48;102238.94;;;5.62;100.00
48624;BME280;34422;45.802;16.114;2023-02-14T08:18:40;102242.06;;;6.77;100.00
48624;BME280;34422;45.802;16.114;2023-02-14T08:21:09;102238.94;;;8.06;100.00
48624;BME280;34422;45.802;16.114;2023-02-14T08:23:37;102236.72;;;8.91;91.32
48624;BME280;34422;45.802;16.114;2023-02-14T08:26:04;102232.84;;;8.31;89.50
48624;BME280;34422;45.802;16.114;2023-02-14T08:28:31;102231.13;;;8.03;95.97
48624;BME280;34422;45.802;16.114;2023-02-14T08:30:58;102238.59;;;8.73;89.38
48624;BME280;34422;45.802;16.114;2023-02-14T08:33:25;102235.09;;;8.81;87.11
48624;BME280;34422;45.802;16.114;2023-02-14T08:35:52;102228.06;;;9.41;83.31
48624;BME280;34422;45.802;16.114;2023-02-14T08:38:19;102228.22;;;10.25;72.82
48624;BME280;34422;45.802;16.114;2023-02-14T08:40:46;102235.25;;;8.79;85.61
48624;BME280;34422;45.802;16.114;2023-02-14T08:43:13;102227.97;;;9.77;75.78
48624;BME280;34422;45.802;16.114;2023-02-14T08:45:41;102231.97;;;9.47;73.58
48624;BME280;34422;45.802;16.114;2023-02-14T08:48:10;102234.78;;;10.57;70.62
48624;BME280;34422;45.802;16.114;2023-02-14T08:50:38;102228.94;;;11.34;66.15
48624;BME280;34422;45.802;16.114;2023-02-14T08:53:07;102233.00;;;10.31;68.41
48624;BME280;34422;45.802;16.114;2023-02-14T08:55:35;102233.88;;;11.23;65.56
48624;BME280;34422;45.802;16.114;2023-02-14T08:58:02;102235.88;;;11.69;62.12
48624;BME280;34422;45.802;16.114;2023-02-14T09:00:30;102232.50;;;11.35;63.62
48624;BME280;34422;45.802;16.114;2023-02-14T09:03:00;102229.72;;;10.62;66.01
48624;BME280;34422;45.802;16.114;2023-02-14T09:05:28;102235.22;;;11.02;67.74
48624;BME280;34422;45.802;16.114;2023-02-14T09:07:55;102239.50;;;10.55;69.08
48624;BME280;34422;45.802;16.114;2023-02-14T09:10:22;102234.69;;;9.73;74.15
48624;BME280;34422;45.802;16.114;2023-02-14T09:12:50;102230.53;;;9.35;77.91
48624;BME280;34422;45.802;16.114;2023-02-14T09:15:17;102239.09;;;8.59;80.29
48624;BME280;34422;45.802;16.114;2023-02-14T09:17:44;102230.78;;;8.15;85.29
48624;BME280;34422;45.802;16.114;2023-02-14T09:20:13;102238.13;;;7.86;90.88
48624;BME280;34422;45.802;16.114;2023-02-14T09:22:40;102235.09;;;7.52;97.46
48624;BME280;34422;45.802;16.114;2023-02-14T09:25:07;102235.94;;;7.62;100.00
48624;BME280;34422;45.802;16.114;2023-02-14T09:27:34;102235.78;;;7.64;98.24
48624;BME280;34422;45.802;16.114;2023-02-14T09:30:01;102232.72;;;7.49;100.00
48624;BME280;34422;45.802;16.114;2023-02-14T09:32:28;102242.25;;;7.05;100.00
48624;BME280;34422;45.802;16.114;2023-02-14T09:34:55;102229.19;;;7.29;100.00
48624;BME280;34422;45.802;16.114;2023-02-14T09:37:22;102230.31;;;7.36;100.00
48624;BME280;34422;45.802;16.114;2023-02-14T09:40:08;102239.94;;;7.48;100.00
48624;BME280;34422;45.802;16.114;2023-02-14T09:45:37;102236.75;;;7.72;100.00
48624;BME280;34422;45.802;16.114;2023-02-14T09:48:44;102240.72;;;7.78;100.00
48624;BME280;34422;45.802;16.114;2023-02-14T09:51:14;102235.06;;;8.08;99.38
48624;BME280;34422;45.802;16.114;2023-02-14T09:53:51;102239.72;;;7.79;100.00
48624;BME280;34422;45.802;16.114;2023-02-14T10:01:38;102234.56;;;8.32;95.25
48624;BME280;34422;45.802;16.114;2023-02-14T10:07:40;102231.00;;;8.59;95.58
48624;BME280;34422;45.802;16.114;2023-02-14T10:10:37;102238.09;;;8.78;90.92
48624;BME280;34422;45.802;16.114;2023-02-14T10:16:01;102237.88;;;9.07;88.16
48624;BME280;34422;45.802;16.114;2023-02-14T10:18:41;102232.72;;;8.96;89.57
48624;BME280;34422;45.802;16.114;2023-02-14T10:21:17;102233.50;;;9.06;87.08
48624;BME280;34422;45.802;16.114;2023-02-14T10:23:56;102233.25;;;9.17;82.24
48624;BME280;34422;45.802;16.114;2023-02-14T10:26:37;102224.38;;;9.07;83.73
48624;BME280;34422;45.802;16.114;2023-02-14T10:29:10;102224.78;;;9.12;85.13
48624;BME280;34422;45.802;16.114;2023-02-14T10:34:49;102211.91;;;9.49;80.31
48624;BME280;34422;45.802;16.114;2023-02-14T10:48:01;102206.22;;;9.86;73.43
48624;BME280;34422;45.802;16.114;2023-02-14T10:53:31;102200.78;;;9.52;79.30
48624;BME280;34422;45.802;16.114;2023-02-14T10:56:06;102200.19;;;9.67;76.91
48624;BME280;34422;45.802;16.114;2023-02-14T10:58:37;102189.38;;;9.67;76.88
48624;BME280;34422;45.802;16.114;2023-02-14T11:01:13;102188.84;;;9.63;75.89
48624;BME280;34422;45.802;16.114;2023-02-14T11:03:51;102190.38;;;9.66;76.27
48624;BME280;34422;45.802;16.114;2023-02-14T11:06:18;102183.06;;;9.84;76.04
48624;BME280;34422;45.802;16.114;2023-02-14T11:08:45;102173.72;;;9.70;77.05
48624;BME280;34422;45.802;16.114;2023-02-14T11:13:52;102187.78;;;9.82;74.21
48624;BME280;34422;45.802;16.114;2023-02-14T11:16:31;102176.97;;;9.82;74.97
48624;BME280;34422;45.802;16.114;2023-02-14T11:19:28;102174.28;;;9.82;72.87
48624;BME280;34422;45.802;16.114;2023-02-14T11:21:59;102167.25;;;10.05;73.47
48624;BME280;34422;45.802;16.114;2023-02-14T11:26:59;102160.81;;;10.40;72.56
48624;BME280;34422;45.802;16.114;2023-02-14T11:29:34;102159.16;;;10.13;71.77
48624;BME280;34422;45.802;16.114;2023-02-14T11:32:09;102160.19;;;10.12;70.01
48624;BME280;34422;45.802;16.114;2023-02-14T11:34:52;102155.91;;;10.02;70.22
48624;BME280;34422;45.802;16.114;2023-02-14T11:39:51;102152.38;;;10.01;71.01
48624;BME280;34422;45.802;16.114;2023-02-14T11:42:44;102146.09;;;10.35;72.37
48624;BME280;34422;45.802;16.114;2023-02-14T11:45:31;102143.44;;;10.51;69.74
48624;BME280;34422;45.802;16.114;2023-02-14T11:51:08;102129.66;;;10.28;70.04
48624;BME280;34422;45.802;16.114;2023-02-14T11:56:10;102126.69;;;9.97;72.22
48624;BME280;34422;45.802;16.114;2023-02-14T11:59:01;102131.56;;;9.93;70.15
48624;BME280;34422;45.802;16.114;2023-02-14T12:01:33;102129.00;;;9.92;73.18
48624;BME280;34422;45.802;16.114;2023-02-14T12:04:24;102123.06;;;9.88;71.37
48624;BME280;34422;45.802;16.114;2023-02-14T12:06:52;102114.53;;;10.09;71.78
48624;BME280;34422;45.802;16.114;2023-02-14T12:09:24;102114.19;;;10.12;70.03
48624;BME280;34422;45.802;16.114;2023-02-14T12:11:56;102107.78;;;10.13;71.80
48624;BME280;34422;45.802;16.114;2023-02-14T12:14:27;102120.00;;;10.25;71.16
48624;BME280;34422;45.802;16.114;2023-02-14T12:16:59;102111.16;;;10.15;70.70
48624;BME280;34422;45.802;16.114;2023-02-14T12:19:35;102103.47;;;10.45;70.51
48624;BME280;34422;45.802;16.114;2023-02-14T12:22:07;102092.50;;;10.71;67.87
48624;BME280;34422;45.802;16.114;2023-02-14T12:27:30;102091.97;;;10.35;68.39
48624;BME280;34422;45.802;16.114;2023-02-14T12:30:04;102093.00;;;10.33;69.49
48624;BME280;34422;45.802;16.114;2023-02-14T12:32:33;102091.50;;;10.47;68.24
48624;BME280;34422;45.802;16.114;2023-02-14T12:35:13;102083.69;;;10.36;69.10
48624;BME280;34422;45.802;16.114;2023-02-14T12:38:10;102073.06;;;10.59;69.74
48624;BME280;34422;45.802;16.114;2023-02-14T12:41:23;102072.03;;;10.76;68.44
48624;BME280;34422;45.802;16.114;2023-02-14T12:43:57;102071.88;;;10.78;68.27
48624;BME280;34422;45.802;16.114;2023-02-14T12:54:48;102057.31;;;10.46;67.43
48624;BME280;34422;45.802;16.114;2023-02-14T13:10:52;102055.44;;;10.55;67.63
48624;BME280;34422;45.802;16.114;2023-02-14T13:13:38;102047.81;;;10.83;65.54
48624;BME280;34422;45.802;16.114;2023-02-14T13:21:13;102040.75;;;10.65;66.59
48624;BME280;34422;45.802;16.114;2023-02-14T13:23:50;102046.81;;;10.76;64.57
48624;BME280;34422;45.802;16.114;2023-02-14T13:26:28;102048.00;;;10.81;64.49
48624;BME280;34422;45.802;16.114;2023-02-14T13:29:01;102046.78;;;10.27;66.39
48624;BME280;34422;45.802;16.114;2023-02-14T13:31:30;102037.53;;;10.38;68.16
48624;BME280;34422;45.802;16.114;2023-02-14T13:34:06;102039.91;;;10.65;66.29
48624;BME280;34422;45.802;16.114;2023-02-14T13:36:35;102037.69;;;10.60;65.50
48624;BME280;34422;45.802;16.114;2023-02-14T13:39:03;102028.03;;;10.58;65.32
48624;BME280;34422;45.802;16.114;2023-02-14T13:41:30;102033.13;;;10.45;66.39
48624;BME280;34422;45.802;16.114;2023-02-14T13:43:58;102031.63;;;10.50;66.07
48624;BME280;34422;45.802;16.114;2023-02-14T13:48:59;102029.41;;;10.62;66.36
48624;BME280;34422;45.802;16.114;2023-02-14T13:51:48;102030.41;;;10.77;65.43
48624;BME280;34422;45.802;16.114;2023-02-14T13:57:25;102037.84;;;10.67;64.56
48624;BME280;34422;45.802;16.114;2023-02-14T14:02:47;102032.63;;;10.65;65.00
48624;BME280;34422;45.802;16.114;2023-02-14T14:11:12;102026.69;;;10.70;64.23
48624;BME280;34422;45.802;16.114;2023-02-14T14:16:57;102021.28;;;10.54;65.82
48624;BME280;34422;45.802;16.114;2023-02-14T14:22:09;102017.06;;;10.51;65.43
48624;BME280;34422;45.802;16.114;2023-02-14T14:25:03;102013.50;;;10.59;65.09
48624;BME280;34422;45.802;16.114;2023-02-14T14:27:39;102010.78;;;10.67;65.07
48624;BME280;34422;45.802;16.114;2023-02-14T14:30:30;102017.22;;;10.50;66.31
48624;BME280;34422;45.802;16.114;2023-02-14T14:33:23;102013.47;;;10.26;66.64
48624;BME280;34422;45.802;16.114;2023-02-14T14:36:01;102006.38;;;10.42;66.83
48624;BME280;34422;45.802;16.114;2023-02-14T14:38:31;102011.97;;;10.40;66.54
48624;BME280;34422;45.802;16.114;2023-02-14T14:40:59;102012.81;;;10.32;67.51
48624;BME280;34422;45.802;16.114;2023-02-14T14:43:32;102010.81;;;10.35;67.75
48624;BME280;34422;45.802;16.114;2023-02-14T14:46:00;102012.50;;;10.36;68.10
48624;BME280;34422;45.802;16.114;2023-02-14T14:51:02;102008.75;;;10.20;68.19
48624;BME280;34422;45.802;16.114;2023-02-14T14:53:46;102009.09;;;10.25;68.72
48624;BME280;34422;45.802;16.114;2023-02-14T14:56:21;102006.38;;;10.25;68.21
48624;BME280;34422;45.802;16.114;2023-02-14T14:58:48;102008.75;;;10.20;68.30
48624;BME280;34422;45.802;16.114;2023-02-14T15:04:17;102003.13;;;10.14;67.74
48624;BME280;34422;45.802;16.114;2023-02-14T15:06:46;102013.09;;;9.97;69.22
48624;BME280;34422;45.802;16.114;2023-02-14T15:09:15;102010.38;;;9.89;69.05
48624;BME280;34422;45.802;16.114;2023-02-14T15:11:45;102011.38;;;9.88;69.14
48624;BME280;34422;45.802;16.114;2023-02-14T15:14:34;102010.19;;;9.90;69.42
48624;BME280;34422;45.802;16.114;2023-02-14T15:17:17;102008.50;;;9.89;69.60
48624;BME280;34422;45.802;16.114;2023-02-14T15:20:06;102004.28;;;9.87;69.38
48624;BME280;34422;45.802;16.114;2023-02-14T15:22:42;102013.75;;;9.83;70.04